sensor_id;sensor_type;location;lat;lon;timestamp;P1;durP1;ratioP1;P2;durP2;ratioP2
10945;SDS011;5525;42.648;23.368;2022-12-05T00:00:11;8.05;;;5.70;;
10945;SDS011;5525;42.648;23.368;2022-12-05T00:02:39;8.40;;;6.05;;
10945;SDS011;5525;42.648;23.368;2022-12-05T00:05:08;8.90;;;5.90;;
10945;SDS011;5525;42.648;23.368;2022-12-05T00:07:36;9.63;;;6.30;;
10945;SDS011;5525;42.648;23.368;2022-12-05T00:10:04;10.32;;;6.57;;
10945;SDS011;5525;42.648;23.368;2022-12-05T00:12:32;9.85;;;5.78;;
10945;SDS011;5525;42.648;23.368;2022-12-05T00:14:59;9.73;;;6.38;;
10945;SDS011;5525;42.648;23.368;2022-12-05T00:17:26;9.13;;;5.80;;
10945;SDS011;5525;42.648;23.368;2022-12-05T00:19:53;9.32;;;6.10;;
10945;SDS011;5525;42.648;23.368;2022-12-05T00:22:21;9.68;;;6.10;;
10945;SDS011;5525;42.648;23.368;2022-12-05T00:24:48;7.80;;;5.93;;
10945;SDS011;5525;42.648;23.368;2022-12-05T00:27:16;8.05;;;5.57;;
10945;SDS011;5525;42.648;23.368;2022-12-05T00:29:43;9.93;;;6.50;;
10945;SDS011;5525;42.648;23.368;2022-12-05T00:32:10;9.77;;;5.97;;
10945;SDS011;5525;42.648;23.368;2022-12-05T00:34:37;8.45;;;5.80;;
10945;SDS011;5525;42.648;23.368;2022-12-05T00:37:04;9.63;;;6.47;;
10945;SDS011;5525;42.648;23.368;2022-12-05T00:39:33;10.68;;;6.68;;
10945;SDS011;5525;42.648;23.368;2022-12-05T00:42:00;9.50;;;6.10;;
10945;SDS011;5525;42.648;23.368;2022-12-05T00:44:27;10.20;;;6.00;;
10945;SDS011;5525;42.648;23.368;2022-12-05T00:46:54;8.48;;;6.07;;
10945;SDS011;5525;42.648;23.368;2022-12-05T00:49:21;9.55;;;5.82;;
10945;SDS011;5525;42.648;23.368;2022-12-05T00:51:48;8.95;;;5.88;;
10945;SDS011;5525;42.648;23.368;2022-12-05T00:54:15;8.75;;;5.90;;
10945;SDS011;5525;42.648;23.368;2022-12-05T00:56:44;9.32;;;6.35;;
10945;SDS011;5525;42.648;23.368;2022-12-05T00:59:13;10.88;;;6.53;;
10945;SDS011;5525;42.648;23.368;2022-12-05T01:01:42;9.50;;;6.20;;
10945;SDS011;5525;42.648;23.368;2022-12-05T01:04:11;10.43;;;6.70;;
10945;SDS011;5525;42.648;23.368;2022-12-05T01:06:40;10.35;;;6.25;;
10945;SDS011;5525;42.648;23.368;2022-12-05T01:09:07;10.07;;;6.03;;
10945;SDS011;5525;42.648;23.368;2022-12-05T01:11:36;8.32;;;5.70;;
10945;SDS011;5525;42.648;23.368;2022-12-05T01:14:04;9.18;;;5.95;;
10945;SDS011;5525;42.648;23.368;2022-12-05T01:16:32;9.35;;;5.95;;
10945;SDS011;5525;42.648;23.368;2022-12-05T01:19:04;9.02;;;5.85;;
10945;SDS011;5525;42.648;23.368;2022-12-05T01:21:33;8.88;;;6.15;;
10945;SDS011;5525;42.648;23.368;2022-12-05T01:24:00;9.35;;;6.13;;
10945;SDS011;5525;42.648;23.368;2022-12-05T01:26:27;11.65;;;6.95;;
10945;SDS011;5525;42.648;23.368;2022-12-05T01:28:55;9.27;;;6.18;;
10945;SDS011;5525;42.648;23.368;2022-12-05T01:31:24;9.85;;;6.30;;
10945;SDS011;5525;42.648;23.368;2022-12-05T01:33:52;11.00;;;6.55;;
10945;SDS011;5525;42.648;23.368;2022-12-05T01:36:21;9.63;;;6.10;;
10945;SDS011;5525;42.648;23.368;2022-12-05T01:38:49;11.18;;;6.03;;
10945;SDS011;5525;42.648;23.368;2022-12-05T01:41:17;9.73;;;6.25;;
10945;SDS011;5525;42.648;23.368;2022-12-05T01:43:52;9.73;;;6.18;;
10945;SDS011;5525;42.648;23.368;2022-12-05T01:46:25;12.48;;;6.47;;
10945;SDS011;5525;42.648;23.368;2022-12-05T01:48:55;10.10;;;6.03;;
10945;SDS011;5525;42.648;23.368;2022-12-05T01:51:25;11.13;;;6.18;;
10945;SDS011;5525;42.648;23.368;2022-12-05T01:53:53;9.27;;;5.25;;
10945;SDS011;5525;42.648;23.368;2022-12-05T01:56:20;11.85;;;6.57;;
10945;SDS011;5525;42.648;23.368;2022-12-05T01:58:47;9.98;;;6.05;;
10945;SDS011;5525;42.648;23.368;2022-12-05T02:01:15;8.85;;;5.53;;
10945;SDS011;5525;42.648;23.368;2022-12-05T02:03:46;10.90;;;6.32;;
10945;SDS011;5525;42.648;23.368;2022-12-05T02:06:16;9.27;;;6.20;;
10945;SDS011;5525;42.648;23.368;2022-12-05T02:08:43;10.25;;;6.40;;
10945;SDS011;5525;42.648;23.368;2022-12-05T02:11:12;10.63;;;6.88;;
10945;SDS011;5525;42.648;23.368;2022-12-05T02:13:50;10.57;;;6.70;;
10945;SDS011;5525;42.648;23.368;2022-12-05T02:16:28;11.55;;;7.00;;
10945;SDS011;5525;42.648;23.368;2022-12-05T02:19:13;11.35;;;6.78;;
10945;SDS011;5525;42.648;23.368;2022-12-05T02:22:22;11.88;;;7.28;;
10945;SDS011;5525;42.648;23.368;2022-12-05T02:28:13;10.73;;;6.35;;
10945;SDS011;5525;42.648;23.368;2022-12-05T02:30:58;10.30;;;6.45;;
10945;SDS011;5525;42.648;23.368;2022-12-05T02:33:34;10.35;;;7.00;;
10945;SDS011;5525;42.648;23.368;2022-12-05T02:36:07;12.05;;;7.70;;
10945;SDS011;5525;42.648;23.368;2022-12-05T02:38:38;12.02;;;7.07;;
10945;SDS011;5525;42.648;23.368;2022-12-05T02:41:13;9.50;;;6.05;;
10945;SDS011;5525;42.648;23.368;2022-12-05T02:43:46;10.23;;;6.18;;
10945;SDS011;5525;42.648;23.368;2022-12-05T02:46:22;10.68;;;6.35;;
10945;SDS011;5525;42.648;23.368;2022-12-05T02:48:53;10.07;;;6.40;;
10945;SDS011;5525;42.648;23.368;2022-12-05T02:51:23;10.07;;;6.13;;
10945;SDS011;5525;42.648;23.368;2022-12-05T02:53:55;10.45;;;6.03;;
10945;SDS011;5525;42.648;23.368;2022-12-05T02:56:24;10.13;;;6.30;;
10945;SDS011;5525;42.648;23.368;2022-12-05T02:58:53;10.98;;;5.97;;
10945;SDS011;5525;42.648;23.368;2022-12-05T03:01:23;11.20;;;7.10;;
10945;SDS011;5525;42.648;23.368;2022-12-05T03:03:53;10.77;;;6.85;;
10945;SDS011;5525;42.648;23.368;2022-12-05T03:06:22;10.80;;;6.53;;
10945;SDS011;5525;42.648;23.368;2022-12-05T03:08:53;10.88;;;6.82;;
10945;SDS011;5525;42.648;23.368;2022-12-05T03:11:24;9.23;;;5.80;;
10945;SDS011;5525;42.648;23.368;2022-12-05T03:13:55;11.18;;;5.82;;
10945;SDS011;5525;42.648;23.368;2022-12-05T03:16:28;10.75;;;7.53;;
10945;SDS011;5525;42.648;23.368;2022-12-05T03:19:00;11.93;;;7.15;;
10945;SDS011;5525;42.648;23.368;2022-12-05T03:21:33;11.23;;;6.60;;
10945;SDS011;5525;42.648;23.368;2022-12-05T03:24:03;13.43;;;7.63;;
10945;SDS011;5525;42.648;23.368;2022-12-05T03:26:36;11.48;;;7.30;;
10945;SDS011;5525;42.648;23.368;2022-12-05T03:29:18;12.27;;;7.00;;
10945;SDS011;5525;42.648;23.368;2022-12-05T03:31:53;10.23;;;6.70;;
10945;SDS011;5525;42.648;23.368;2022-12-05T03:34:31;10.90;;;6.80;;
10945;SDS011;5525;42.648;23.368;2022-12-05T03:37:09;9.73;;;6.53;;
10945;SDS011;5525;42.648;23.368;2022-12-05T03:39:44;10.13;;;7.25;;
10945;SDS011;5525;42.648;23.368;2022-12-05T03:42:19;11.35;;;6.40;;
10945;SDS011;5525;42.648;23.368;2022-12-05T03:44:55;11.02;;;6.70;;
10945;SDS011;5525;42.648;23.368;2022-12-05T03:47:28;12.40;;;7.00;;
10945;SDS011;5525;42.648;23.368;2022-12-05T03:50:04;10.70;;;6.93;;
10945;SDS011;5525;42.648;23.368;2022-12-05T03:52:39;10.70;;;7.30;;
10945;SDS011;5525;42.648;23.368;2022-12-05T03:55:11;8.52;;;5.95;;
10945;SDS011;5525;42.648;23.368;2022-12-05T03:57:41;12.25;;;6.70;;
10945;SDS011;5525;42.648;23.368;2022-12-05T04:00:13;9.75;;;6.50;;
10945;SDS011;5525;42.648;23.368;2022-12-05T04:02:46;9.73;;;6.50;;
10945;SDS011;5525;42.648;23.368;2022-12-05T04:05:17;11.35;;;6.45;;
10945;SDS011;5525;42.648;23.368;2022-12-05T04:07:50;9.73;;;5.72;;
10945;SDS011;5525;42.648;23.368;2022-12-05T04:10:21;9.95;;;6.18;;
10945;SDS011;5525;42.648;23.368;2022-12-05T04:12:51;9.98;;;6.10;;
10945;SDS011;5525;42.648;23.368;2022-12-05T04:15:22;11.90;;;6.43;;
10945;SDS011;5525;42.648;23.368;2022-12-05T04:17:54;9.23;;;5.88;;
10945;SDS011;5525;42.648;23.368;2022-12-05T04:20:23;9.98;;;6.10;;
10945;SDS011;5525;42.648;23.368;2022-12-05T04:23:15;10.57;;;6.90;;
10945;SDS011;5525;42.648;23.368;2022-12-05T04:25:46;10.15;;;5.97;;
10945;SDS011;5525;42.648;23.368;2022-12-05T04:28:26;10.68;;;6.60;;
10945;SDS011;5525;42.648;23.368;2022-12-05T04:30:59;10.05;;;6.40;;
10945;SDS011;5525;42.648;23.368;2022-12-05T04:33:33;12.63;;;6.50;;
10945;SDS011;5525;42.648;23.368;2022-12-05T04:36:07;11.60;;;6.32;;
10945;SDS011;5525;42.648;23.368;2022-12-05T04:38:40;11.23;;;6.68;;
10945;SDS011;5525;42.648;23.368;2022-12-05T04:41:12;11.20;;;6.88;;
10945;SDS011;5525;42.648;23.368;2022-12-05T04:43:42;11.23;;;7.10;;
10945;SDS011;5525;42.648;23.368;2022-12-05T04:46:13;12.45;;;6.93;;
10945;SDS011;5525;42.648;23.368;2022-12-05T04:48:45;12.55;;;7.45;;
10945;SDS011;5525;42.648;23.368;2022-12-05T04:51:19;11.77;;;7.00;;
10945;SDS011;5525;42.648;23.368;2022-12-05T04:53:50;13.38;;;6.95;;
10945;SDS011;5525;42.648;23.368;2022-12-05T04:56:26;11.98;;;7.40;;
10945;SDS011;5525;42.648;23.368;2022-12-05T04:58:56;14.02;;;7.97;;
10945;SDS011;5525;42.648;23.368;2022-12-05T05:01:24;12.40;;;7.35;;
10945;SDS011;5525;42.648;23.368;2022-12-05T05:03:58;11.90;;;6.97;;
10945;SDS011;5525;42.648;23.368;2022-12-05T05:06:27;11.05;;;7.20;;
10945;SDS011;5525;42.648;23.368;2022-12-05T05:08:55;14.55;;;7.60;;
10945;SDS011;5525;42.648;23.368;2022-12-05T05:11:25;13.38;;;7.82;;
10945;SDS011;5525;42.648;23.368;2022-12-05T05:13:54;11.02;;;7.20;;
10945;SDS011;5525;42.648;23.368;2022-12-05T05:16:22;11.60;;;6.90;;
10945;SDS011;5525;42.648;23.368;2022-12-05T05:18:51;11.13;;;7.07;;
10945;SDS011;5525;42.648;23.368;2022-12-05T05:21:20;11.45;;;7.40;;
10945;SDS011;5525;42.648;23.368;2022-12-05T05:23:50;11.23;;;7.10;;
10945;SDS011;5525;42.648;23.368;2022-12-05T05:26:17;11.50;;;7.30;;
10945;SDS011;5525;42.648;23.368;2022-12-05T05:28:45;11.30;;;7.47;;
10945;SDS011;5525;42.648;23.368;2022-12-05T05:31:12;11.80;;;7.47;;
10945;SDS011;5525;42.648;23.368;2022-12-05T05:33:40;12.82;;;7.88;;
10945;SDS011;5525;42.648;23.368;2022-12-05T05:36:07;12.38;;;8.02;;
10945;SDS011;5525;42.648;23.368;2022-12-05T05:38:39;13.32;;;8.05;;
10945;SDS011;5525;42.648;23.368;2022-12-05T05:41:15;13.02;;;7.93;;
10945;SDS011;5525;42.648;23.368;2022-12-05T05:43:43;15.73;;;8.35;;
10945;SDS011;5525;42.648;23.368;2022-12-05T05:46:11;13.23;;;7.82;;
10945;SDS011;5525;42.648;23.368;2022-12-05T05:48:40;12.23;;;7.68;;
10945;SDS011;5525;42.648;23.368;2022-12-05T05:51:08;13.95;;;7.75;;
10945;SDS011;5525;42.648;23.368;2022-12-05T05:53:37;13.13;;;7.93;;
10945;SDS011;5525;42.648;23.368;2022-12-05T05:56:06;11.95;;;8.07;;
10945;SDS011;5525;42.648;23.368;2022-12-05T05:58:36;12.35;;;7.35;;
10945;SDS011;5525;42.648;23.368;2022-12-05T06:01:03;12.40;;;7.95;;
10945;SDS011;5525;42.648;23.368;2022-12-05T06:03:31;14.35;;;8.18;;
10945;SDS011;5525;42.648;23.368;2022-12-05T06:05:59;11.60;;;7.75;;
10945;SDS011;5525;42.648;23.368;2022-12-05T06:08:28;15.55;;;7.78;;
10945;SDS011;5525;42.648;23.368;2022-12-05T06:16:38;11.07;;;7.38;;
10945;SDS011;5525;42.648;23.368;2022-12-05T06:19:05;11.23;;;7.68;;
10945;SDS011;5525;42.648;23.368;2022-12-05T06:21:32;12.15;;;7.80;;
10945;SDS011;5525;42.648;23.368;2022-12-05T06:23:59;11.52;;;7.38;;
10945;SDS011;5525;42.648;23.368;2022-12-05T06:26:26;10.40;;;6.70;;
10945;SDS011;5525;42.648;23.368;2022-12-05T06:28:55;10.52;;;7.13;;
10945;SDS011;5525;42.648;23.368;2022-12-05T06:31:23;13.85;;;7.43;;
10945;SDS011;5525;42.648;23.368;2022-12-05T06:33:55;10.68;;;6.80;;
10945;SDS011;5525;42.648;23.368;2022-12-05T06:36:24;10.73;;;6.47;;
10945;SDS011;5525;42.648;23.368;2022-12-05T06:38:52;9.80;;;6.30;;
10945;SDS011;5525;42.648;23.368;2022-12-05T06:41:19;10.32;;;6.00;;
10945;SDS011;5525;42.648;23.368;2022-12-05T06:43:50;9.27;;;6.35;;
10945;SDS011;5525;42.648;23.368;2022-12-05T06:46:20;8.77;;;6.10;;
10945;SDS011;5525;42.648;23.368;2022-12-05T06:48:51;9.40;;;6.72;;
10945;SDS011;5525;42.648;23.368;2022-12-05T06:51:18;8.68;;;5.90;;
10945;SDS011;5525;42.648;23.368;2022-12-05T06:53:45;8.15;;;6.15;;
10945;SDS011;5525;42.648;23.368;2022-12-05T06:56:13;9.63;;;6.13;;
10945;SDS011;5525;42.648;23.368;2022-12-05T06:58:42;8.90;;;6.43;;
10945;SDS011;5525;42.648;23.368;2022-12-05T07:01:10;10.35;;;6.25;;
10945;SDS011;5525;42.648;23.368;2022-12-05T07:03:57;9.32;;;6.03;;
10945;SDS011;5525;42.648;23.368;2022-12-05T07:06:25;9.13;;;5.82;;
10945;SDS011;5525;42.648;23.368;2022-12-05T07:08:52;9.85;;;6.10;;
10945;SDS011;5525;42.648;23.368;2022-12-05T07:11:21;9.60;;;5.82;;
10945;SDS011;5525;42.648;23.368;2022-12-05T07:13:48;10.35;;;6.18;;
10945;SDS011;5525;42.648;23.368;2022-12-05T07:16:15;9.45;;;5.82;;
10945;SDS011;5525;42.648;23.368;2022-12-05T07:18:42;9.15;;;6.00;;
10945;SDS011;5525;42.648;23.368;2022-12-05T07:21:12;8.98;;;5.68;;
10945;SDS011;5525;42.648;23.368;2022-12-05T07:23:41;10.63;;;6.20;;
10945;SDS011;5525;42.648;23.368;2022-12-05T07:26:11;10.15;;;6.40;;
10945;SDS011;5525;42.648;23.368;2022-12-05T07:28:40;11.02;;;6.75;;
10945;SDS011;5525;42.648;23.368;2022-12-05T07:31:08;9.65;;;6.18;;
10945;SDS011;5525;42.648;23.368;2022-12-05T07:33:36;12.57;;;6.50;;
10945;SDS011;5525;42.648;23.368;2022-12-05T07:36:04;9.02;;;5.90;;
10945;SDS011;5525;42.648;23.368;2022-12-05T07:38:35;7.22;;;5.30;;
10945;SDS011;5525;42.648;23.368;2022-12-05T07:41:03;11.55;;;5.70;;
10945;SDS011;5525;42.648;23.368;2022-12-05T07:43:31;8.27;;;5.20;;
10945;SDS011;5525;42.648;23.368;2022-12-05T07:46:00;9.90;;;5.82;;
10945;SDS011;5525;42.648;23.368;2022-12-05T07:48:28;9.30;;;6.40;;
10945;SDS011;5525;42.648;23.368;2022-12-05T07:50:57;10.35;;;6.65;;
10945;SDS011;5525;42.648;23.368;2022-12-05T07:53:25;8.27;;;5.60;;
10945;SDS011;5525;42.648;23.368;2022-12-05T07:55:54;8.63;;;5.22;;
10945;SDS011;5525;42.648;23.368;2022-12-05T07:58:21;11.50;;;6.88;;
10945;SDS011;5525;42.648;23.368;2022-12-05T08:00:49;9.15;;;6.60;;
10945;SDS011;5525;42.648;23.368;2022-12-05T08:03:16;11.52;;;8.63;;
10945;SDS011;5525;42.648;23.368;2022-12-05T08:05:43;13.40;;;7.50;;
10945;SDS011;5525;42.648;23.368;2022-12-05T08:08:10;11.80;;;5.45;;
10945;SDS011;5525;42.648;23.368;2022-12-05T08:10:37;7.45;;;5.15;;
10945;SDS011;5525;42.648;23.368;2022-12-05T08:13:05;9.25;;;5.40;;
10945;SDS011;5525;42.648;23.368;2022-12-05T08:15:33;6.80;;;5.22;;
10945;SDS011;5525;42.648;23.368;2022-12-05T08:18:01;9.43;;;5.97;;
10945;SDS011;5525;42.648;23.368;2022-12-05T08:20:28;5.38;;;3.60;;
10945;SDS011;5525;42.648;23.368;2022-12-05T08:22:55;7.88;;;3.97;;
10945;SDS011;5525;42.648;23.368;2022-12-05T08:25:22;7.95;;;5.03;;
10945;SDS011;5525;42.648;23.368;2022-12-05T08:27:48;5.60;;;4.10;;
10945;SDS011;5525;42.648;23.368;2022-12-05T08:30:17;9.27;;;4.38;;
10945;SDS011;5525;42.648;23.368;2022-12-05T08:32:44;6.53;;;4.32;;
10945;SDS011;5525;42.648;23.368;2022-12-05T08:35:10;5.28;;;4.05;;
10945;SDS011;5525;42.648;23.368;2022-12-05T08:37:37;5.53;;;4.05;;
10945;SDS011;5525;42.648;23.368;2022-12-05T08:40:04;6.65;;;4.22;;
10945;SDS011;5525;42.648;23.368;2022-12-05T08:42:32;4.90;;;3.80;;
10945;SDS011;5525;42.648;23.368;2022-12-05T08:44:59;4.20;;;3.50;;
10945;SDS011;5525;42.648;23.368;2022-12-05T08:47:27;4.47;;;3.05;;
10945;SDS011;5525;42.648;23.368;2022-12-05T08:49:54;5.22;;;3.85;;
10945;SDS011;5525;42.648;23.368;2022-12-05T08:52:21;4.78;;;3.40;;
10945;SDS011;5525;42.648;23.368;2022-12-05T08:54:48;4.63;;;3.78;;
10945;SDS011;5525;42.648;23.368;2022-12-05T08:57:16;7.72;;;4.43;;
10945;SDS011;5525;42.648;23.368;2022-12-05T08:59:43;7.72;;;5.10;;
10945;SDS011;5525;42.648;23.368;2022-12-05T09:02:10;7.40;;;5.10;;
10945;SDS011;5525;42.648;23.368;2022-12-05T09:04:38;9.35;;;5.85;;
10945;SDS011;5525;42.648;23.368;2022-12-05T09:07:05;7.18;;;5.32;;
10945;SDS011;5525;42.648;23.368;2022-12-05T09:09:32;6.07;;;4.90;;
10945;SDS011;5525;42.648;23.368;2022-12-05T09:11:59;7.22;;;4.63;;
10945;SDS011;5525;42.648;23.368;2022-12-05T09:14:26;6.47;;;4.50;;
10945;SDS011;5525;42.648;23.368;2022-12-05T09:16:57;7.93;;;5.30;;
10945;SDS011;5525;42.648;23.368;2022-12-05T09:19:25;8.00;;;5.50;;
10945;SDS011;5525;42.648;23.368;2022-12-05T09:21:54;7.45;;;5.00;;
10945;SDS011;5525;42.648;23.368;2022-12-05T09:24:22;9.55;;;5.57;;
10945;SDS011;5525;42.648;23.368;2022-12-05T09:26:49;6.68;;;4.95;;
10945;SDS011;5525;42.648;23.368;2022-12-05T09:29:17;5.97;;;4.50;;
10945;SDS011;5525;42.648;23.368;2022-12-05T09:31:45;6.90;;;5.28;;
10945;SDS011;5525;42.648;23.368;2022-12-05T09:34:15;9.60;;;6.07;;
10945;SDS011;5525;42.648;23.368;2022-12-05T09:36:44;10.90;;;6.57;;
10945;SDS011;5525;42.648;23.368;2022-12-05T09:39:16;11.18;;;6.10;;
10945;SDS011;5525;42.648;23.368;2022-12-05T09:41:57;6.40;;;4.57;;
10945;SDS011;5525;42.648;23.368;2022-12-05T09:44:40;6.07;;;4.22;;
10945;SDS011;5525;42.648;23.368;2022-12-05T09:47:13;5.57;;;4.03;;
10945;SDS011;5525;42.648;23.368;2022-12-05T09:49:54;6.55;;;4.43;;
10945;SDS011;5525;42.648;23.368;2022-12-05T09:52:24;6.80;;;4.65;;
10945;SDS011;5525;42.648;23.368;2022-12-05T09:54:55;6.10;;;4.72;;
10945;SDS011;5525;42.648;23.368;2022-12-05T09:57:28;6.22;;;5.03;;
10945;SDS011;5525;42.648;23.368;2022-12-05T10:00:00;6.05;;;4.60;;
10945;SDS011;5525;42.648;23.368;2022-12-05T10:02:32;8.88;;;5.95;;
10945;SDS011;5525;42.648;23.368;2022-12-05T10:05:10;27.38;;;20.13;;
10945;SDS011;5525;42.648;23.368;2022-12-05T10:07:46;6.93;;;4.60;;
10945;SDS011;5525;42.648;23.368;2022-12-05T10:10:29;5.32;;;4.03;;
10945;SDS011;5525;42.648;23.368;2022-12-05T10:13:07;6.65;;;4.57;;
10945;SDS011;5525;42.648;23.368;2022-12-05T10:15:48;5.45;;;4.30;;
10945;SDS011;5525;42.648;23.368;2022-12-05T10:18:24;6.45;;;4.82;;
10945;SDS011;5525;42.648;23.368;2022-12-05T10:20:56;5.40;;;3.97;;
10945;SDS011;5525;42.648;23.368;2022-12-05T10:23:28;8.40;;;4.95;;
10945;SDS011;5525;42.648;23.368;2022-12-05T10:26:03;7.55;;;4.88;;
10945;SDS011;5525;42.648;23.368;2022-12-05T10:28:33;5.65;;;4.10;;
10945;SDS011;5525;42.648;23.368;2022-12-05T10:31:06;6.32;;;4.53;;
10945;SDS011;5525;42.648;23.368;2022-12-05T10:33:36;5.85;;;4.38;;
10945;SDS011;5525;42.648;23.368;2022-12-05T10:36:09;5.53;;;4.20;;
10945;SDS011;5525;42.648;23.368;2022-12-05T10:38:37;5.18;;;4.35;;
10945;SDS011;5525;42.648;23.368;2022-12-05T10:41:08;7.13;;;4.57;;
10945;SDS011;5525;42.648;23.368;2022-12-05T10:43:39;8.68;;;5.80;;
10945;SDS011;5525;42.648;23.368;2022-12-05T10:46:07;7.68;;;5.63;;
10945;SDS011;5525;42.648;23.368;2022-12-05T10:48:36;9.93;;;6.03;;
10945;SDS011;5525;42.648;23.368;2022-12-05T10:51:05;6.75;;;5.75;;
10945;SDS011;5525;42.648;23.368;2022-12-05T10:53:36;7.75;;;5.32;;
10945;SDS011;5525;42.648;23.368;2022-12-05T10:59:06;7.65;;;5.03;;
10945;SDS011;5525;42.648;23.368;2022-12-05T11:01:35;5.97;;;4.65;;
10945;SDS011;5525;42.648;23.368;2022-12-05T11:04:06;7.20;;;5.22;;
10945;SDS011;5525;42.648;23.368;2022-12-05T11:06:36;5.97;;;4.88;;
10945;SDS011;5525;42.648;23.368;2022-12-05T11:09:08;5.45;;;4.20;;
10945;SDS011;5525;42.648;23.368;2022-12-05T11:11:43;6.22;;;4.72;;
10945;SDS011;5525;42.648;23.368;2022-12-05T11:14:25;8.20;;;5.35;;
10945;SDS011;5525;42.648;23.368;2022-12-05T11:16:54;7.10;;;5.15;;
10945;SDS011;5525;42.648;23.368;2022-12-05T11:19:24;6.95;;;4.97;;
10945;SDS011;5525;42.648;23.368;2022-12-05T11:21:54;6.15;;;4.63;;
10945;SDS011;5525;42.648;23.368;2022-12-05T11:24:23;7.90;;;4.78;;
10945;SDS011;5525;42.648;23.368;2022-12-05T11:26:54;7.60;;;5.30;;
10945;SDS011;5525;42.648;23.368;2022-12-05T11:29:32;6.57;;;4.53;;
10945;SDS011;5525;42.648;23.368;2022-12-05T11:32:00;9.45;;;5.43;;
10945;SDS011;5525;42.648;23.368;2022-12-05T11:34:34;8.18;;;5.32;;
10945;SDS011;5525;42.648;23.368;2022-12-05T11:37:08;7.40;;;5.82;;
10945;SDS011;5525;42.648;23.368;2022-12-05T11:39:38;7.50;;;5.03;;
10945;SDS011;5525;42.648;23.368;2022-12-05T11:45:08;7.72;;;5.35;;
10945;SDS011;5525;42.648;23.368;2022-12-05T11:50:51;9.32;;;6.07;;
10945;SDS011;5525;42.648;23.368;2022-12-05T11:53:33;9.40;;;5.50;;
10945;SDS011;5525;42.648;23.368;2022-12-05T11:56:16;9.38;;;6.20;;
10945;SDS011;5525;42.648;23.368;2022-12-05T11:59:01;10.82;;;6.38;;
10945;SDS011;5525;42.648;23.368;2022-12-05T12:01:41;9.63;;;6.38;;
10945;SDS011;5525;42.648;23.368;2022-12-05T12:04:28;8.60;;;5.90;;
10945;SDS011;5525;42.648;23.368;2022-12-05T12:07:20;11.40;;;7.00;;
10945;SDS011;5525;42.648;23.368;2022-12-05T12:09:54;11.90;;;7.68;;
10945;SDS011;5525;42.648;23.368;2022-12-05T12:12:30;10.90;;;6.82;;
10945;SDS011;5525;42.648;23.368;2022-12-05T12:15:06;10.45;;;7.47;;
10945;SDS011;5525;42.648;23.368;2022-12-05T12:17:46;10.70;;;7.63;;
10945;SDS011;5525;42.648;23.368;2022-12-05T12:20:26;13.15;;;7.78;;
10945;SDS011;5525;42.648;23.368;2022-12-05T12:23:08;10.90;;;7.03;;
10945;SDS011;5525;42.648;23.368;2022-12-05T12:25:50;10.32;;;6.93;;
10945;SDS011;5525;42.648;23.368;2022-12-05T12:28:27;10.10;;;6.85;;
10945;SDS011;5525;42.648;23.368;2022-12-05T12:31:08;10.98;;;7.65;;
10945;SDS011;5525;42.648;23.368;2022-12-05T12:34:08;11.05;;;7.57;;
10945;SDS011;5525;42.648;23.368;2022-12-05T12:36:49;12.25;;;7.60;;
10945;SDS011;5525;42.648;23.368;2022-12-05T12:39:24;11.20;;;6.72;;
10945;SDS011;5525;42.648;23.368;2022-12-05T12:42:13;12.40;;;7.65;;
10945;SDS011;5525;42.648;23.368;2022-12-05T12:44:57;12.32;;;8.35;;
10945;SDS011;5525;42.648;23.368;2022-12-05T12:47:46;13.32;;;9.15;;
10945;SDS011;5525;42.648;23.368;2022-12-05T12:50:25;15.52;;;8.70;;
10945;SDS011;5525;42.648;23.368;2022-12-05T12:56:00;13.07;;;8.35;;
10945;SDS011;5525;42.648;23.368;2022-12-05T12:58:41;14.88;;;9.18;;
10945;SDS011;5525;42.648;23.368;2022-12-05T13:01:15;15.25;;;8.57;;
10945;SDS011;5525;42.648;23.368;2022-12-05T13:03:59;15.88;;;9.70;;
10945;SDS011;5525;42.648;23.368;2022-12-05T13:06:39;16.30;;;9.75;;
10945;SDS011;5525;42.648;23.368;2022-12-05T13:09:11;15.18;;;8.73;;
10945;SDS011;5525;42.648;23.368;2022-12-05T13:11:44;15.02;;;9.50;;
10945;SDS011;5525;42.648;23.368;2022-12-05T13:14:14;14.30;;;8.75;;
10945;SDS011;5525;42.648;23.368;2022-12-05T13:16:44;16.67;;;10.15;;
10945;SDS011;5525;42.648;23.368;2022-12-05T13:19:22;16.75;;;10.15;;
10945;SDS011;5525;42.648;23.368;2022-12-05T13:21:52;16.80;;;10.23;;
10945;SDS011;5525;42.648;23.368;2022-12-05T13:24:23;16.10;;;10.43;;
10945;SDS011;5525;42.648;23.368;2022-12-05T13:26:51;19.42;;;11.07;;
10945;SDS011;5525;42.648;23.368;2022-12-05T13:29:20;15.80;;;10.73;;
10945;SDS011;5525;42.648;23.368;2022-12-05T13:31:51;16.90;;;11.55;;
10945;SDS011;5525;42.648;23.368;2022-12-05T13:37:22;15.98;;;9.85;;
10945;SDS011;5525;42.648;23.368;2022-12-05T13:40:18;17.55;;;10.45;;
10945;SDS011;5525;42.648;23.368;2022-12-05T13:43:10;17.92;;;11.00;;
10945;SDS011;5525;42.648;23.368;2022-12-05T13:45:40;18.98;;;10.88;;
10945;SDS011;5525;42.648;23.368;2022-12-05T13:48:11;18.85;;;11.02;;
10945;SDS011;5525;42.648;23.368;2022-12-05T13:50:48;17.27;;;11.07;;
10945;SDS011;5525;42.648;23.368;2022-12-05T13:53:23;18.00;;;11.80;;
10945;SDS011;5525;42.648;23.368;2022-12-05T13:55:57;20.40;;;11.68;;
10945;SDS011;5525;42.648;23.368;2022-12-05T13:58:40;20.15;;;11.93;;
10945;SDS011;5525;42.648;23.368;2022-12-05T14:10:08;19.60;;;11.00;;
10945;SDS011;5525;42.648;23.368;2022-12-05T14:15:27;19.30;;;11.40;;
10945;SDS011;5525;42.648;23.368;2022-12-05T14:18:00;18.38;;;11.38;;
10945;SDS011;5525;42.648;23.368;2022-12-05T14:20:33;20.30;;;11.52;;
10945;SDS011;5525;42.648;23.368;2022-12-05T14:23:17;21.70;;;12.90;;
10945;SDS011;5525;42.648;23.368;2022-12-05T14:26:00;21.75;;;12.45;;
10945;SDS011;5525;42.648;23.368;2022-12-05T14:28:40;18.70;;;11.18;;
10945;SDS011;5525;42.648;23.368;2022-12-05T14:31:23;20.30;;;12.15;;
10945;SDS011;5525;42.648;23.368;2022-12-05T14:34:12;18.77;;;11.70;;
10945;SDS011;5525;42.648;23.368;2022-12-05T14:36:51;22.33;;;12.70;;
10945;SDS011;5525;42.648;23.368;2022-12-05T14:39:37;21.77;;;12.35;;
10945;SDS011;5525;42.648;23.368;2022-12-05T14:42:18;19.95;;;11.77;;
10945;SDS011;5525;42.648;23.368;2022-12-05T14:44:50;20.20;;;12.38;;
10945;SDS011;5525;42.648;23.368;2022-12-05T14:47:20;19.70;;;12.32;;
10945;SDS011;5525;42.648;23.368;2022-12-05T14:49:51;17.92;;;10.70;;
10945;SDS011;5525;42.648;23.368;2022-12-05T14:52:26;20.27;;;11.15;;
10945;SDS011;5525;42.648;23.368;2022-12-05T14:54:59;18.58;;;10.73;;
10945;SDS011;5525;42.648;23.368;2022-12-05T14:57:34;18.45;;;10.95;;
10945;SDS011;5525;42.648;23.368;2022-12-05T15:00:13;19.33;;;11.93;;
10945;SDS011;5525;42.648;23.368;2022-12-05T15:02:45;19.35;;;12.00;;
10945;SDS011;5525;42.648;23.368;2022-12-05T15:05:18;22.95;;;12.52;;
10945;SDS011;5525;42.648;23.368;2022-12-05T15:07:49;20.77;;;11.57;;
10945;SDS011;5525;42.648;23.368;2022-12-05T15:10:21;21.50;;;12.70;;
10945;SDS011;5525;42.648;23.368;2022-12-05T15:12:50;20.25;;;12.40;;
10945;SDS011;5525;42.648;23.368;2022-12-05T15:15:23;19.75;;;12.25;;
10945;SDS011;5525;42.648;23.368;2022-12-05T15:17:58;20.92;;;11.77;;
10945;SDS011;5525;42.648;23.368;2022-12-05T15:20:32;19.48;;;12.23;;
10945;SDS011;5525;42.648;23.368;2022-12-05T15:26:15;22.17;;;14.20;;
10945;SDS011;5525;42.648;23.368;2022-12-05T15:29:00;21.52;;;12.93;;
10945;SDS011;5525;42.648;23.368;2022-12-05T15:31:31;22.73;;;12.73;;
10945;SDS011;5525;42.648;23.368;2022-12-05T15:34:02;18.90;;;12.18;;
10945;SDS011;5525;42.648;23.368;2022-12-05T15:36:33;23.05;;;12.82;;
10945;SDS011;5525;42.648;23.368;2022-12-05T15:39:03;20.02;;;12.23;;
10945;SDS011;5525;42.648;23.368;2022-12-05T15:41:32;21.55;;;12.85;;
10945;SDS011;5525;42.648;23.368;2022-12-05T15:43:59;22.25;;;13.40;;